sensor_id;sensor_type;location;lat;lon;timestamp;P1;durP1;ratioP1;P2;durP2;ratioP2
59145;SDS011;44928;53.074;6.646;2023-09-18T00:02:25;15.07;;;8.02;;
59145;SDS011;44928;53.074;6.646;2023-09-18T00:04:53;12.98;;;8.73;;
59145;SDS011;44928;53.074;6.646;2023-09-18T00:07:18;11.32;;;7.80;;
59145;SDS011;44928;53.074;6.646;2023-09-18T00:09:44;11.55;;;8.88;;
59145;SDS011;44928;53.074;6.646;2023-09-18T00:12:10;13.68;;;10.25;;
59145;SDS011;44928;53.074;6.646;2023-09-18T00:14:36;14.38;;;10.93;;
59145;SDS011;44928;53.074;6.646;2023-09-18T00:17:03;18.25;;;10.77;;
59145;SDS011;44928;53.074;6.646;2023-09-18T00:19:28;13.52;;;8.82;;
59145;SDS011;44928;53.074;6.646;2023-09-18T00:21:56;13.27;;;7.38;;
59145;SDS011;44928;53.074;6.646;2023-09-18T00:24:26;12.98;;;8.73;;
59145;SDS011;44928;53.074;6.646;2023-09-18T00:26:52;12.10;;;8.77;;
59145;SDS011;44928;53.074;6.646;2023-09-18T00:29:19;10.23;;;7.25;;
59145;SDS011;44928;53.074;6.646;2023-09-18T00:31:45;10.15;;;7.65;;
59145;SDS011;44928;53.074;6.646;2023-09-18T00:34:10;12.30;;;9.93;;
59145;SDS011;44928;53.074;6.646;2023-09-18T00:36:36;13.85;;;9.38;;
59145;SDS011;44928;53.074;6.646;2023-09-18T00:39:03;11.57;;;8.43;;
59145;SDS011;44928;53.074;6.646;2023-09-18T00:41:29;12.82;;;8.45;;
59145;SDS011;44928;53.074;6.646;2023-09-18T00:43:55;12.80;;;9.32;;
59145;SDS011;44928;53.074;6.646;2023-09-18T00:46:21;12.55;;;9.38;;
59145;SDS011;44928;53.074;6.646;2023-09-18T00:48:47;14.07;;;10.57;;
59145;SDS011;44928;53.074;6.646;2023-09-18T00:51:14;12.77;;;9.30;;
59145;SDS011;44928;53.074;6.646;2023-09-18T00:53:44;13.00;;;10.00;;
59145;SDS011;44928;53.074;6.646;2023-09-18T00:56:13;18.02;;;15.20;;
59145;SDS011;44928;53.074;6.646;2023-09-18T00:58:40;17.02;;;13.93;;
59145;SDS011;44928;53.074;6.646;2023-09-18T01:01:06;15.18;;;12.13;;
59145;SDS011;44928;53.074;6.646;2023-09-18T01:03:33;15.57;;;11.65;;
59145;SDS011;44928;53.074;6.646;2023-09-18T01:06:00;17.95;;;14.23;;
59145;SDS011;44928;53.074;6.646;2023-09-18T01:08:26;19.48;;;13.23;;
59145;SDS011;44928;53.074;6.646;2023-09-18T01:13:45;18.45;;;14.82;;
59145;SDS011;44928;53.074;6.646;2023-09-18T01:16:35;19.25;;;14.45;;
59145;SDS011;44928;53.074;6.646;2023-09-18T01:19:09;19.85;;;17.75;;
59145;SDS011;44928;53.074;6.646;2023-09-18T01:21:36;27.40;;;23.95;;
59145;SDS011;44928;53.074;6.646;2023-09-18T01:24:02;26.02;;;19.83;;
59145;SDS011;44928;53.074;6.646;2023-09-18T01:26:28;19.90;;;16.42;;
59145;SDS011;44928;53.074;6.646;2023-09-18T01:28:54;17.52;;;15.73;;
59145;SDS011;44928;53.074;6.646;2023-09-18T01:31:20;18.77;;;16.88;;
59145;SDS011;44928;53.074;6.646;2023-09-18T01:33:46;20.30;;;18.20;;
59145;SDS011;44928;53.074;6.646;2023-09-18T01:36:13;20.05;;;17.33;;
59145;SDS011;44928;53.074;6.646;2023-09-18T01:38:41;19.33;;;17.25;;
59145;SDS011;44928;53.074;6.646;2023-09-18T01:41:07;20.02;;;17.88;;
59145;SDS011;44928;53.074;6.646;2023-09-18T01:43:34;22.15;;;18.65;;
59145;SDS011;44928;53.074;6.646;2023-09-18T01:46:00;20.40;;;17.73;;
59145;SDS011;44928;53.074;6.646;2023-09-18T01:48:26;25.77;;;22.13;;
59145;SDS011;44928;53.074;6.646;2023-09-18T01:50:52;22.70;;;20.00;;
59145;SDS011;44928;53.074;6.646;2023-09-18T01:53:18;23.75;;;20.98;;
59145;SDS011;44928;53.074;6.646;2023-09-18T01:55:44;23.00;;;20.70;;
59145;SDS011;44928;53.074;6.646;2023-09-18T01:58:10;22.60;;;20.20;;
59145;SDS011;44928;53.074;6.646;2023-09-18T02:00:39;27.83;;;21.70;;
59145;SDS011;44928;53.074;6.646;2023-09-18T02:03:05;25.95;;;22.63;;
59145;SDS011;44928;53.074;6.646;2023-09-18T02:05:31;24.60;;;22.00;;
59145;SDS011;44928;53.074;6.646;2023-09-18T02:07:57;26.35;;;22.35;;
59145;SDS011;44928;53.074;6.646;2023-09-18T02:10:23;24.52;;;22.00;;
59145;SDS011;44928;53.074;6.646;2023-09-18T02:12:49;25.65;;;22.55;;
59145;SDS011;44928;53.074;6.646;2023-09-18T02:15:15;27.27;;;24.27;;
59145;SDS011;44928;53.074;6.646;2023-09-18T02:17:41;26.85;;;24.05;;
59145;SDS011;44928;53.074;6.646;2023-09-18T02:20:08;31.40;;;27.15;;
59145;SDS011;44928;53.074;6.646;2023-09-18T02:22:37;27.95;;;24.77;;
59145;SDS011;44928;53.074;6.646;2023-09-18T02:25:05;29.42;;;26.38;;
59145;SDS011;44928;53.074;6.646;2023-09-18T02:27:31;30.60;;;27.30;;
59145;SDS011;44928;53.074;6.646;2023-09-18T02:29:57;25.58;;;23.02;;
59145;SDS011;44928;53.074;6.646;2023-09-18T02:32:23;27.02;;;24.00;;
59145;SDS011;44928;53.074;6.646;2023-09-18T02:34:49;28.55;;;25.13;;
59145;SDS011;44928;53.074;6.646;2023-09-18T02:37:14;27.55;;;24.25;;
59145;SDS011;44928;53.074;6.646;2023-09-18T02:39:40;24.83;;;21.55;;
59145;SDS011;44928;53.074;6.646;2023-09-18T02:42:06;24.65;;;20.95;;
59145;SDS011;44928;53.074;6.646;2023-09-18T02:44:32;27.33;;;24.52;;
59145;SDS011;44928;53.074;6.646;2023-09-18T02:46:58;29.15;;;26.15;;
59145;SDS011;44928;53.074;6.646;2023-09-18T02:49:23;28.15;;;25.13;;
59145;SDS011;44928;53.074;6.646;2023-09-18T02:51:49;28.52;;;25.52;;
59145;SDS011;44928;53.074;6.646;2023-09-18T02:54:15;28.77;;;25.67;;
59145;SDS011;44928;53.074;6.646;2023-09-18T02:56:41;25.48;;;22.83;;
59145;SDS011;44928;53.074;6.646;2023-09-18T02:59:06;25.88;;;22.88;;
59145;SDS011;44928;53.074;6.646;2023-09-18T03:01:32;24.88;;;22.02;;
59145;SDS011;44928;53.074;6.646;2023-09-18T03:03:58;25.02;;;22.45;;
59145;SDS011;44928;53.074;6.646;2023-09-18T03:06:24;25.42;;;22.85;;
59145;SDS011;44928;53.074;6.646;2023-09-18T03:08:50;26.02;;;23.23;;
59145;SDS011;44928;53.074;6.646;2023-09-18T03:11:15;26.23;;;23.58;;
59145;SDS011;44928;53.074;6.646;2023-09-18T03:13:45;26.73;;;23.65;;
59145;SDS011;44928;53.074;6.646;2023-09-18T03:16:11;31.45;;;26.58;;
59145;SDS011;44928;53.074;6.646;2023-09-18T03:18:37;24.60;;;22.00;;
59145;SDS011;44928;53.074;6.646;2023-09-18T03:21:03;25.83;;;23.05;;
59145;SDS011;44928;53.074;6.646;2023-09-18T03:23:30;26.13;;;23.33;;
59145;SDS011;44928;53.074;6.646;2023-09-18T03:25:55;24.50;;;21.90;;
59145;SDS011;44928;53.074;6.646;2023-09-18T03:28:21;24.65;;;21.95;;
59145;SDS011;44928;53.074;6.646;2023-09-18T03:30:47;25.10;;;22.50;;
59145;SDS011;44928;53.074;6.646;2023-09-18T03:33:14;24.25;;;21.80;;
59145;SDS011;44928;53.074;6.646;2023-09-18T03:35:50;24.70;;;22.13;;
59145;SDS011;44928;53.074;6.646;2023-09-18T03:38:17;25.50;;;22.80;;
59145;SDS011;44928;53.074;6.646;2023-09-18T03:40:43;24.73;;;22.23;;
59145;SDS011;44928;53.074;6.646;2023-09-18T03:43:09;25.60;;;22.73;;
59145;SDS011;44928;53.074;6.646;2023-09-18T03:45:35;23.85;;;20.92;;
59145;SDS011;44928;53.074;6.646;2023-09-18T03:48:01;25.00;;;22.30;;
59145;SDS011;44928;53.074;6.646;2023-09-18T03:50:27;24.95;;;22.35;;
59145;SDS011;44928;53.074;6.646;2023-09-18T03:52:53;24.73;;;20.83;;
59145;SDS011;44928;53.074;6.646;2023-09-18T03:55:19;23.63;;;21.23;;
59145;SDS011;44928;53.074;6.646;2023-09-18T03:57:45;22.27;;;20.02;;
59145;SDS011;44928;53.074;6.646;2023-09-18T04:00:13;24.02;;;20.38;;
59145;SDS011;44928;53.074;6.646;2023-09-18T04:02:39;22.80;;;20.17;;
59145;SDS011;44928;53.074;6.646;2023-09-18T04:05:05;23.48;;;20.95;;
59145;SDS011;44928;53.074;6.646;2023-09-18T04:07:32;21.17;;;18.00;;
59145;SDS011;44928;53.074;6.646;2023-09-18T04:09:58;25.98;;;21.02;;
59145;SDS011;44928;53.074;6.646;2023-09-18T04:12:24;24.25;;;21.65;;
59145;SDS011;44928;53.074;6.646;2023-09-18T04:14:50;26.75;;;20.17;;
59145;SDS011;44928;53.074;6.646;2023-09-18T04:17:16;21.48;;;19.27;;
59145;SDS011;44928;53.074;6.646;2023-09-18T04:19:42;22.23;;;19.65;;
59145;SDS011;44928;53.074;6.646;2023-09-18T04:22:09;21.95;;;19.67;;
59145;SDS011;44928;53.074;6.646;2023-09-18T04:24:34;20.58;;;18.38;;
59145;SDS011;44928;53.074;6.646;2023-09-18T04:27:00;21.63;;;19.33;;
59145;SDS011;44928;53.074;6.646;2023-09-18T04:29:26;21.83;;;19.10;;
59145;SDS011;44928;53.074;6.646;2023-09-18T04:31:52;27.75;;;22.10;;
59145;SDS011;44928;53.074;6.646;2023-09-18T04:34:20;21.10;;;18.90;;
59145;SDS011;44928;53.074;6.646;2023-09-18T04:36:47;21.40;;;19.13;;
59145;SDS011;44928;53.074;6.646;2023-09-18T04:39:13;23.33;;;20.40;;
59145;SDS011;44928;53.074;6.646;2023-09-18T04:41:39;23.60;;;20.80;;
59145;SDS011;44928;53.074;6.646;2023-09-18T04:44:05;20.02;;;17.88;;
59145;SDS011;44928;53.074;6.646;2023-09-18T04:46:32;20.73;;;18.52;;
59145;SDS011;44928;53.074;6.646;2023-09-18T04:48:59;21.42;;;19.00;;
59145;SDS011;44928;53.074;6.646;2023-09-18T04:51:25;23.45;;;20.80;;
59145;SDS011;44928;53.074;6.646;2023-09-18T04:53:51;23.40;;;19.88;;
59145;SDS011;44928;53.074;6.646;2023-09-18T04:56:17;24.25;;;19.45;;
59145;SDS011;44928;53.074;6.646;2023-09-18T04:58:43;20.63;;;18.33;;
59145;SDS011;44928;53.074;6.646;2023-09-18T05:01:09;21.77;;;19.15;;
59145;SDS011;44928;53.074;6.646;2023-09-18T05:03:36;24.73;;;19.65;;
59145;SDS011;44928;53.074;6.646;2023-09-18T05:06:02;22.02;;;18.98;;
59145;SDS011;44928;53.074;6.646;2023-09-18T05:08:29;23.70;;;17.13;;
59145;SDS011;44928;53.074;6.646;2023-09-18T05:10:55;19.50;;;17.40;;
59145;SDS011;44928;53.074;6.646;2023-09-18T05:13:21;25.80;;;19.30;;
59145;SDS011;44928;53.074;6.646;2023-09-18T05:15:46;19.90;;;17.55;;
59145;SDS011;44928;53.074;6.646;2023-09-18T05:18:12;21.60;;;18.38;;
59145;SDS011;44928;53.074;6.646;2023-09-18T05:20:39;24.52;;;18.83;;
59145;SDS011;44928;53.074;6.646;2023-09-18T05:23:05;21.58;;;18.05;;
59145;SDS011;44928;53.074;6.646;2023-09-18T05:25:31;26.85;;;19.75;;
59145;SDS011;44928;53.074;6.646;2023-09-18T05:27:58;20.88;;;18.67;;
59145;SDS011;44928;53.074;6.646;2023-09-18T05:30:31;19.30;;;17.20;;
59145;SDS011;44928;53.074;6.646;2023-09-18T05:33:00;19.50;;;16.85;;
59145;SDS011;44928;53.074;6.646;2023-09-18T05:38:05;19.90;;;16.98;;
59145;SDS011;44928;53.074;6.646;2023-09-18T05:40:32;20.23;;;16.38;;
59145;SDS011;44928;53.074;6.646;2023-09-18T05:42:58;17.45;;;15.32;;
59145;SDS011;44928;53.074;6.646;2023-09-18T05:45:24;16.60;;;13.32;;
59145;SDS011;44928;53.074;6.646;2023-09-18T05:47:52;16.88;;;13.43;;
59145;SDS011;44928;53.074;6.646;2023-09-18T05:50:18;19.55;;;15.05;;
59145;SDS011;44928;53.074;6.646;2023-09-18T05:52:45;21.05;;;14.82;;
59145;SDS011;44928;53.074;6.646;2023-09-18T05:55:12;20.63;;;13.35;;
59145;SDS011;44928;53.074;6.646;2023-09-18T05:57:41;16.67;;;13.32;;
59145;SDS011;44928;53.074;6.646;2023-09-18T06:00:08;17.60;;;11.95;;
59145;SDS011;44928;53.074;6.646;2023-09-18T06:02:37;17.08;;;12.50;;
59145;SDS011;44928;53.074;6.646;2023-09-18T06:05:04;15.50;;;12.25;;
59145;SDS011;44928;53.074;6.646;2023-09-18T06:07:30;16.70;;;11.85;;
59145;SDS011;44928;53.074;6.646;2023-09-18T06:09:57;14.43;;;11.93;;
59145;SDS011;44928;53.074;6.646;2023-09-18T06:12:23;16.17;;;11.70;;
59145;SDS011;44928;53.074;6.646;2023-09-18T06:14:50;15.80;;;10.85;;
59145;SDS011;44928;53.074;6.646;2023-09-18T06:17:16;14.82;;;10.88;;
59145;SDS011;44928;53.074;6.646;2023-09-18T06:19:43;15.15;;;11.25;;
59145;SDS011;44928;53.074;6.646;2023-09-18T06:22:09;14.05;;;9.75;;
59145;SDS011;44928;53.074;6.646;2023-09-18T06:24:35;14.23;;;9.60;;
59145;SDS011;44928;53.074;6.646;2023-09-18T06:27:02;13.73;;;10.55;;
59145;SDS011;44928;53.074;6.646;2023-09-18T06:29:31;14.77;;;10.02;;
59145;SDS011;44928;53.074;6.646;2023-09-18T06:32:00;15.15;;;9.85;;
59145;SDS011;44928;53.074;6.646;2023-09-18T06:34:26;14.00;;;9.05;;
59145;SDS011;44928;53.074;6.646;2023-09-18T06:36:53;14.40;;;9.43;;
59145;SDS011;44928;53.074;6.646;2023-09-18T06:39:19;14.23;;;9.48;;
59145;SDS011;44928;53.074;6.646;2023-09-18T06:41:49;14.50;;;9.93;;
59145;SDS011;44928;53.074;6.646;2023-09-18T06:44:15;15.40;;;9.05;;
59145;SDS011;44928;53.074;6.646;2023-09-18T06:46:40;12.88;;;9.43;;
59145;SDS011;44928;53.074;6.646;2023-09-18T06:49:06;13.90;;;9.32;;
59145;SDS011;44928;53.074;6.646;2023-09-18T06:51:32;13.70;;;9.57;;
59145;SDS011;44928;53.074;6.646;2023-09-18T06:53:58;13.05;;;9.15;;
59145;SDS011;44928;53.074;6.646;2023-09-18T06:56:24;13.50;;;9.15;;
59145;SDS011;44928;53.074;6.646;2023-09-18T06:58:50;14.82;;;8.85;;
59145;SDS011;44928;53.074;6.646;2023-09-18T07:01:19;14.60;;;9.38;;
59145;SDS011;44928;53.074;6.646;2023-09-18T07:03:46;14.20;;;10.35;;
59145;SDS011;44928;53.074;6.646;2023-09-18T07:06:13;15.02;;;9.45;;
59145;SDS011;44928;53.074;6.646;2023-09-18T07:08:42;13.25;;;9.20;;
59145;SDS011;44928;53.074;6.646;2023-09-18T07:11:08;16.58;;;10.07;;
59145;SDS011;44928;53.074;6.646;2023-09-18T07:13:34;19.92;;;10.60;;
59145;SDS011;44928;53.074;6.646;2023-09-18T07:16:00;20.38;;;13.18;;
59145;SDS011;44928;53.074;6.646;2023-09-18T07:18:26;20.13;;;12.57;;
59145;SDS011;44928;53.074;6.646;2023-09-18T07:20:52;23.27;;;14.07;;
59145;SDS011;44928;53.074;6.646;2023-09-18T07:23:17;19.67;;;12.80;;
59145;SDS011;44928;53.074;6.646;2023-09-18T07:25:43;22.23;;;13.80;;
59145;SDS011;44928;53.074;6.646;2023-09-18T07:28:10;19.98;;;12.80;;
59145;SDS011;44928;53.074;6.646;2023-09-18T07:30:41;21.20;;;13.02;;
59145;SDS011;44928;53.074;6.646;2023-09-18T07:33:07;28.15;;;15.05;;
59145;SDS011;44928;53.074;6.646;2023-09-18T07:35:32;21.75;;;14.57;;
59145;SDS011;44928;53.074;6.646;2023-09-18T07:37:58;18.30;;;12.90;;
59145;SDS011;44928;53.074;6.646;2023-09-18T07:40:24;17.17;;;13.13;;
59145;SDS011;44928;53.074;6.646;2023-09-18T07:42:50;19.67;;;13.85;;
59145;SDS011;44928;53.074;6.646;2023-09-18T07:45:16;16.55;;;13.23;;
59145;SDS011;44928;53.074;6.646;2023-09-18T07:47:43;18.38;;;12.82;;
59145;SDS011;44928;53.074;6.646;2023-09-18T07:50:09;19.27;;;14.05;;
59145;SDS011;44928;53.074;6.646;2023-09-18T07:52:35;18.88;;;13.77;;
59145;SDS011;44928;53.074;6.646;2023-09-18T07:55:01;16.80;;;13.65;;
59145;SDS011;44928;53.074;6.646;2023-09-18T07:57:27;17.23;;;13.63;;
59145;SDS011;44928;53.074;6.646;2023-09-18T07:59:55;17.10;;;13.38;;
59145;SDS011;44928;53.074;6.646;2023-09-18T08:02:21;19.63;;;13.57;;
59145;SDS011;44928;53.074;6.646;2023-09-18T08:04:47;17.20;;;13.35;;
59145;SDS011;44928;53.074;6.646;2023-09-18T08:07:13;18.10;;;13.57;;
59145;SDS011;44928;53.074;6.646;2023-09-18T08:09:39;17.10;;;12.93;;
59145;SDS011;44928;53.074;6.646;2023-09-18T08:12:05;18.55;;;14.00;;
59145;SDS011;44928;53.074;6.646;2023-09-18T08:14:32;18.42;;;13.23;;
59145;SDS011;44928;53.074;6.646;2023-09-18T08:17:00;19.90;;;13.15;;
59145;SDS011;44928;53.074;6.646;2023-09-18T08:19:28;16.35;;;11.73;;
59145;SDS011;44928;53.074;6.646;2023-09-18T08:21:54;20.48;;;12.90;;
59145;SDS011;44928;53.074;6.646;2023-09-18T08:24:21;19.40;;;13.93;;
59145;SDS011;44928;53.074;6.646;2023-09-18T08:26:48;14.98;;;11.65;;
59145;SDS011;44928;53.074;6.646;2023-09-18T08:29:14;14.65;;;11.93;;
59145;SDS011;44928;53.074;6.646;2023-09-18T08:31:40;14.00;;;10.75;;
59145;SDS011;44928;53.074;6.646;2023-09-18T08:34:06;18.83;;;12.48;;
59145;SDS011;44928;53.074;6.646;2023-09-18T08:36:32;16.02;;;11.25;;
59145;SDS011;44928;53.074;6.646;2023-09-18T08:38:58;17.60;;;12.10;;
59145;SDS011;44928;53.074;6.646;2023-09-18T08:41:24;16.33;;;11.55;;
59145;SDS011;44928;53.074;6.646;2023-09-18T08:43:56;17.42;;;11.95;;
59145;SDS011;44928;53.074;6.646;2023-09-18T08:46:28;15.88;;;12.05;;
59145;SDS011;44928;53.074;6.646;2023-09-18T08:48:55;16.83;;;12.23;;
59145;SDS011;44928;53.074;6.646;2023-09-18T08:51:25;16.60;;;12.95;;
59145;SDS011;44928;53.074;6.646;2023-09-18T08:53:52;17.23;;;12.50;;
59145;SDS011;44928;53.074;6.646;2023-09-18T08:56:19;18.38;;;13.55;;
59145;SDS011;44928;53.074;6.646;2023-09-18T08:58:46;21.10;;;14.23;;
59145;SDS011;44928;53.074;6.646;2023-09-18T09:01:12;18.90;;;14.30;;
59145;SDS011;44928;53.074;6.646;2023-09-18T09:03:39;18.58;;;12.75;;
59145;SDS011;44928;53.074;6.646;2023-09-18T09:06:11;19.20;;;14.60;;
59145;SDS011;44928;53.074;6.646;2023-09-18T09:08:37;18.75;;;13.80;;
59145;SDS011;44928;53.074;6.646;2023-09-18T09:11:04;17.83;;;13.40;;
59145;SDS011;44928;53.074;6.646;2023-09-18T09:13:30;16.98;;;13.98;;
59145;SDS011;44928;53.074;6.646;2023-09-18T09:15:57;18.83;;;14.75;;
59145;SDS011;44928;53.074;6.646;2023-09-18T09:18:25;18.90;;;14.23;;
59145;SDS011;44928;53.074;6.646;2023-09-18T09:20:55;20.08;;;15.43;;
59145;SDS011;44928;53.074;6.646;2023-09-18T09:23:26;19.75;;;14.57;;
59145;SDS011;44928;53.074;6.646;2023-09-18T09:25:53;21.33;;;14.88;;
59145;SDS011;44928;53.074;6.646;2023-09-18T09:28:37;21.38;;;14.57;;
59145;SDS011;44928;53.074;6.646;2023-09-18T09:31:02;18.77;;;14.75;;
59145;SDS011;44928;53.074;6.646;2023-09-18T09:33:29;19.30;;;14.98;;
59145;SDS011;44928;53.074;6.646;2023-09-18T09:35:55;20.50;;;15.88;;
59145;SDS011;44928;53.074;6.646;2023-09-18T09:38:28;20.63;;;17.23;;
59145;SDS011;44928;53.074;6.646;2023-09-18T09:41:01;22.85;;;16.52;;
59145;SDS011;44928;53.074;6.646;2023-09-18T09:43:29;21.95;;;16.80;;
59145;SDS011;44928;53.074;6.646;2023-09-18T09:45:58;22.27;;;18.23;;
59145;SDS011;44928;53.074;6.646;2023-09-18T09:48:25;23.58;;;18.38;;
59145;SDS011;44928;53.074;6.646;2023-09-18T09:50:51;22.42;;;18.38;;
59145;SDS011;44928;53.074;6.646;2023-09-18T09:53:22;24.75;;;19.83;;
59145;SDS011;44928;53.074;6.646;2023-09-18T09:56:12;22.48;;;18.52;;
59145;SDS011;44928;53.074;6.646;2023-09-18T09:58:38;21.52;;;17.70;;
59145;SDS011;44928;53.074;6.646;2023-09-18T10:03:36;21.85;;;18.17;;
59145;SDS011;44928;53.074;6.646;2023-09-18T10:06:05;24.10;;;18.63;;
59145;SDS011;44928;53.074;6.646;2023-09-18T10:08:32;25.27;;;19.80;;
59145;SDS011;44928;53.074;6.646;2023-09-18T10:11:01;23.70;;;17.98;;
59145;SDS011;44928;53.074;6.646;2023-09-18T10:13:37;22.55;;;18.42;;
59145;SDS011;44928;53.074;6.646;2023-09-18T10:16:22;20.67;;;18.45;;
59145;SDS011;44928;53.074;6.646;2023-09-18T10:19:11;20.48;;;18.27;;
59145;SDS011;44928;53.074;6.646;2023-09-18T10:22:06;20.15;;;16.45;;
59145;SDS011;44928;53.074;6.646;2023-09-18T10:24:47;19.95;;;16.80;;
59145;SDS011;44928;53.074;6.646;2023-09-18T10:27:19;19.45;;;15.88;;
59145;SDS011;44928;53.074;6.646;2023-09-18T10:29:48;18.15;;;16.17;;
59145;SDS011;44928;53.074;6.646;2023-09-18T10:32:16;18.08;;;15.80;;
59145;SDS011;44928;53.074;6.646;2023-09-18T10:34:45;20.17;;;17.20;;
59145;SDS011;44928;53.074;6.646;2023-09-18T10:37:13;20.45;;;15.93;;
59145;SDS011;44928;53.074;6.646;2023-09-18T10:39:41;17.17;;;15.40;;
59145;SDS011;44928;53.074;6.646;2023-09-18T10:42:09;18.08;;;12.88;;
59145;SDS011;44928;53.074;6.646;2023-09-18T19:20:10;8.15;;;1.90;;
59145;SDS011;44928;53.074;6.646;2023-09-18T19:22:36;5.93;;;1.80;;
59145;SDS011;44928;53.074;6.646;2023-09-18T19:25:03;7.57;;;2.20;;
59145;SDS011;44928;53.074;6.646;2023-09-18T19:27:29;6.97;;;1.80;;
59145;SDS011;44928;53.074;6.646;2023-09-18T19:30:01;6.03;;;1.92;;
59145;SDS011;44928;53.074;6.646;2023-09-18T19:32:29;6.15;;;2.10;;
59145;SDS011;44928;53.074;6.646;2023-09-18T19:34:55;7.50;;;2.17;;
59145;SDS011;44928;53.074;6.646;2023-09-18T19:37:21;5.57;;;1.98;;
59145;SDS011;44928;53.074;6.646;2023-09-18T19:39:47;7.18;;;2.08;;
59145;SDS011;44928;53.074;6.646;2023-09-18T19:42:12;5.07;;;1.92;;
59145;SDS011;44928;53.074;6.646;2023-09-18T19:44:38;7.60;;;1.75;;
59145;SDS011;44928;53.074;6.646;2023-09-18T19:47:04;5.50;;;1.88;;
59145;SDS011;44928;53.074;6.646;2023-09-18T19:49:30;6.88;;;2.08;;
59145;SDS011;44928;53.074;6.646;2023-09-18T19:51:57;7.47;;;1.95;;
59145;SDS011;44928;53.074;6.646;2023-09-18T19:54:22;7.68;;;2.10;;
59145;SDS011;44928;53.074;6.646;2023-09-18T19:56:49;6.43;;;2.00;;
59145;SDS011;44928;53.074;6.646;2023-09-18T19:59:16;7.05;;;1.85;;
59145;SDS011;44928;53.074;6.646;2023-09-18T20:01:43;8.93;;;2.42;;
59145;SDS011;44928;53.074;6.646;2023-09-18T20:04:10;7.60;;;1.95;;
59145;SDS011;44928;53.074;6.646;2023-09-18T20:06:37;7.78;;;2.10;;
59145;SDS011;44928;53.074;6.646;2023-09-18T20:09:03;11.05;;;2.40;;
59145;SDS011;44928;53.074;6.646;2023-09-18T20:11:31;5.32;;;1.60;;
59145;SDS011;44928;53.074;6.646;2023-09-18T20:13:57;12.40;;;2.60;;
59145;SDS011;44928;53.074;6.646;2023-09-18T20:16:24;5.82;;;2.10;;
59145;SDS011;44928;53.074;6.646;2023-09-18T20:18:50;8.48;;;2.40;;
59145;SDS011;44928;53.074;6.646;2023-09-18T20:21:17;7.32;;;2.58;;
59145;SDS011;44928;53.074;6.646;2023-09-18T20:23:45;8.38;;;2.08;;
59145;SDS011;44928;53.074;6.646;2023-09-18T20:26:11;7.50;;;2.28;;
59145;SDS011;44928;53.074;6.646;2023-09-18T20:28:37;6.20;;;2.00;;
59145;SDS011;44928;53.074;6.646;2023-09-18T20:31:03;8.88;;;2.15;;
59145;SDS011;44928;53.074;6.646;2023-09-18T20:33:29;6.90;;;2.30;;
59145;SDS011;44928;53.074;6.646;2023-09-18T20:35:58;7.60;;;2.13;;
59145;SDS011;44928;53.074;6.646;2023-09-18T20:38:28;9.82;;;2.40;;
59145;SDS011;44928;53.074;6.646;2023-09-18T20:40:54;8.48;;;2.40;;
59145;SDS011;44928;53.074;6.646;2023-09-18T20:43:20;8.18;;;2.25;;
59145;SDS011;44928;53.074;6.646;2023-09-18T20:45:51;10.57;;;2.75;;
59145;SDS011;44928;53.074;6.646;2023-09-18T20:48:18;10.13;;;2.75;;
59145;SDS011;44928;53.074;6.646;2023-09-18T20:50:44;8.88;;;2.80;;
59145;SDS011;44928;53.074;6.646;2023-09-18T20:53:11;8.13;;;2.58;;
59145;SDS011;44928;53.074;6.646;2023-09-18T20:55:37;8.77;;;2.65;;
59145;SDS011;44928;53.074;6.646;2023-09-18T20:58:04;8.77;;;2.30;;
59145;SDS011;44928;53.074;6.646;2023-09-18T21:00:31;9.38;;;2.22;;
59145;SDS011;44928;53.074;6.646;2023-09-18T21:02:59;9.15;;;2.53;;
59145;SDS011;44928;53.074;6.646;2023-09-18T21:05:25;10.63;;;2.40;;
59145;SDS011;44928;53.074;6.646;2023-09-18T21:07:52;9.98;;;2.47;;
59145;SDS011;44928;53.074;6.646;2023-09-18T21:10:19;9.85;;;2.28;;
59145;SDS011;44928;53.074;6.646;2023-09-18T21:12:45;9.05;;;2.05;;
59145;SDS011;44928;53.074;6.646;2023-09-18T21:15:11;7.95;;;2.15;;
59145;SDS011;44928;53.074;6.646;2023-09-18T21:17:38;8.27;;;2.13;;
59145;SDS011;44928;53.074;6.646;2023-09-18T21:20:04;7.75;;;1.70;;
59145;SDS011;44928;53.074;6.646;2023-09-18T21:22:32;12.95;;;2.47;;
59145;SDS011;44928;53.074;6.646;2023-09-18T21:24:58;10.27;;;2.08;;
59145;SDS011;44928;53.074;6.646;2023-09-18T21:27:24;10.40;;;2.35;;
59145;SDS011;44928;53.074;6.646;2023-09-18T21:29:50;9.98;;;2.17;;
59145;SDS011;44928;53.074;6.646;2023-09-18T21:32:16;9.65;;;2.03;;
59145;SDS011;44928;53.074;6.646;2023-09-18T21:34:42;10.02;;;2.08;;
59145;SDS011;44928;53.074;6.646;2023-09-18T21:37:08;9.40;;;2.35;;
59145;SDS011;44928;53.074;6.646;2023-09-18T21:39:33;12.43;;;2.17;;
59145;SDS011;44928;53.074;6.646;2023-09-18T21:41:59;11.88;;;2.22;;
59145;SDS011;44928;53.074;6.646;2023-09-18T21:44:25;16.42;;;2.42;;
59145;SDS011;44928;53.074;6.646;2023-09-18T21:46:51;10.48;;;2.35;;
59145;SDS011;44928;53.074;6.646;2023-09-18T21:49:17;13.50;;;2.83;;
59145;SDS011;44928;53.074;6.646;2023-09-18T21:51:43;9.07;;;2.08;;
59145;SDS011;44928;53.074;6.646;2023-09-18T21:54:09;7.72;;;1.90;;
59145;SDS011;44928;53.074;6.646;2023-09-18T21:56:36;8.52;;;1.90;;
59145;SDS011;44928;53.074;6.646;2023-09-18T21:59:02;11.43;;;2.17;;
59145;SDS011;44928;53.074;6.646;2023-09-18T22:01:31;9.50;;;1.92;;
59145;SDS011;44928;53.074;6.646;2023-09-18T22:03:57;12.48;;;2.25;;
59145;SDS011;44928;53.074;6.646;2023-09-18T22:06:24;11.13;;;1.88;;
59145;SDS011;44928;53.074;6.646;2023-09-18T22:08:53;9.38;;;1.98;;
59145;SDS011;44928;53.074;6.646;2023-09-18T22:11:19;10.98;;;2.10;;
59145;SDS011;44928;53.074;6.646;2023-09-18T22:13:45;9.05;;;1.85;;
59145;SDS011;44928;53.074;6.646;2023-09-18T22:16:11;9.40;;;1.95;;
59145;SDS011;44928;53.074;6.646;2023-09-18T22:18:38;10.45;;;2.30;;
59145;SDS011;44928;53.074;6.646;2023-09-18T22:21:04;9.27;;;1.95;;
59145;SDS011;44928;53.074;6.646;2023-09-18T22:23:29;8.52;;;2.10;;
59145;SDS011;44928;53.074;6.646;2023-09-18T22:25:57;10.18;;;2.10;;
59145;SDS011;44928;53.074;6.646;2023-09-18T22:28:22;9.02;;;1.60;;
59145;SDS011;44928;53.074;6.646;2023-09-18T22:30:48;11.50;;;1.80;;
59145;SDS011;44928;53.074;6.646;2023-09-18T22:33:15;10.30;;;1.80;;
59145;SDS011;44928;53.074;6.646;2023-09-18T22:35:41;9.95;;;2.30;;
59145;SDS011;44928;53.074;6.646;2023-09-18T22:38:54;9.68;;;1.98;;
59145;SDS011;44928;53.074;6.646;2023-09-18T22:55:12;9.70;;;2.33;;
59145;SDS011;44928;53.074;6.646;2023-09-18T23:00:17;8.40;;;2.30;;
59145;SDS011;44928;53.074;6.646;2023-09-18T23:02:44;10.93;;;2.72;;
59145;SDS011;44928;53.074;6.646;2023-09-18T23:05:14;12.10;;;2.13;;
59145;SDS011;44928;53.074;6.646;2023-09-18T23:07:43;12.10;;;2.05;;
59145;SDS011;44928;53.074;6.646;2023-09-18T23:10:15;7.38;;;1.95;;
59145;SDS011;44928;53.074;6.646;2023-09-18T23:12:42;9.85;;;2.03;;
59145;SDS011;44928;53.074;6.646;2023-09-18T23:15:12;10.65;;;2.05;;
59145;SDS011;44928;53.074;6.646;2023-09-18T23:17:40;8.15;;;1.63;;
59145;SDS011;44928;53.074;6.646;2023-09-18T23:20:11;11.85;;;2.70;;
59145;SDS011;44928;53.074;6.646;2023-09-18T23:25:06;11.30;;;2.20;;
59145;SDS011;44928;53.074;6.646;2023-09-18T23:27:42;12.15;;;2.45;;
59145;SDS011;44928;53.074;6.646;2023-09-18T23:30:13;7.10;;;1.70;;
59145;SDS011;44928;53.074;6.646;2023-09-18T23:32:43;11.00;;;2.40;;